createdAt,value
2022-08-28T00:00:25.977Z,94812.41
2022-08-28T00:02:54.502Z,94820.09
2022-08-28T00:05:24.415Z,94826.06
2022-08-28T00:07:51.140Z,94833.84
2022-08-28T00:10:22.603Z,94820.31
2022-08-28T00:12:50.804Z,94815.06
2022-08-28T00:15:22.110Z,94811.81
2022-08-28T00:17:49.671Z,94826.28
2022-08-28T00:20:18.768Z,94812.41
2022-08-28T00:22:46.072Z,94819.94
2022-08-28T00:25:14.203Z,94813.28
2022-08-28T00:27:52.738Z,94819.78
2022-08-28T00:30:36.569Z,94814.25
2022-08-28T00:33:13.784Z,94823.59
2022-08-28T00:35:42.421Z,94823.34
2022-08-28T00:38:11.127Z,94818.41
2022-08-28T00:40:40.188Z,94826.31
2022-08-28T00:43:08.666Z,94825.28
2022-08-28T00:45:39.556Z,94809.09
2022-08-28T00:48:06.941Z,94823.63
2022-08-28T00:50:56.807Z,94819.91
2022-08-28T00:53:30.087Z,94832.00
2022-08-28T00:56:04.136Z,94824.78
2022-08-28T00:58:34.261Z,94826.81
2022-08-28T01:01:01.489Z,94817.78
2022-08-28T01:03:28.384Z,94823.47
2022-08-28T01:05:55.692Z,94824.75
2022-08-28T01:08:23.057Z,94824.28
2022-08-28T01:10:54.533Z,94821.53
2022-08-28T01:13:22.393Z,94820.72
2022-08-28T01:15:50.247Z,94823.47
2022-08-28T01:18:18.418Z,94831.53
2022-08-28T01:21:05.580Z,94825.78
2022-08-28T01:23:55.787Z,94827.47
2022-08-28T01:26:23.082Z,94820.41
2022-08-28T01:28:50.058Z,94814.38
2022-08-28T01:31:17.261Z,94822.59
2022-08-28T01:33:46.645Z,94822.16
2022-08-28T01:36:14.588Z,94828.13
2022-08-28T01:38:43.615Z,94832.88
2022-08-28T01:41:13.916Z,94829.66
2022-08-28T01:43:41.942Z,94826.19
2022-08-28T01:46:09.928Z,94830.25
2022-08-28T01:48:40.093Z,94831.75
2022-08-28T01:51:07.085Z,94825.03
2022-08-28T01:53:34.270Z,94826.31
2022-08-28T01:56:04.754Z,94827.13
2022-08-28T01:58:37.453Z,94837.75
2022-08-28T02:01:09.895Z,94828.97
2022-08-28T02:03:36.699Z,94831.03
2022-08-28T02:06:03.647Z,94833.03
2022-08-28T02:08:30.285Z,94832.56
2022-08-28T02:10:57.249Z,94839.13
2022-08-28T02:13:25.683Z,94836.38
2022-08-28T02:15:52.525Z,94837.59
2022-08-28T02:18:19.253Z,94845.63
2022-08-28T02:20:46.643Z,94831.16
2022-08-28T02:23:14.252Z,94833.91
2022-08-28T02:25:40.895Z,94835.47
2022-08-28T02:28:07.884Z,94832.44
2022-08-28T02:30:35.543Z,94830.41
2022-08-28T02:33:02.229Z,94831.91
2022-08-28T02:35:28.815Z,94828.41
2022-08-28T02:37:55.649Z,94819.63
2022-08-28T02:40:24.085Z,94830.94
2022-08-28T02:42:52.113Z,94837.69
2022-08-28T02:45:20.015Z,94829.22
2022-08-28T02:47:48.165Z,94834.19
2022-08-28T02:50:18.031Z,94839.72
2022-08-28T02:52:44.731Z,94838.97
2022-08-28T02:55:13.389Z,94839.22
2022-08-28T02:57:40.490Z,94838.28
2022-08-28T03:00:12.838Z,94831.75
2022-08-28T03:02:41.194Z,94843.47
2022-08-28T03:05:09.190Z,94847.22
2022-08-28T03:07:35.858Z,94848.72
2022-08-28T03:10:03.813Z,94847.97
2022-08-28T03:12:30.474Z,94857.22
2022-08-28T03:14:57.070Z,94850.28
2022-08-28T03:17:23.681Z,94848.25
2022-08-28T03:19:50.790Z,94851.03
2022-08-28T03:22:39.030Z,94847.28
2022-08-28T03:25:06.824Z,94834.75
2022-08-28T03:27:33.648Z,94842.75
2022-08-28T03:30:00.274Z,94843.47
2022-08-28T03:32:26.943Z,94846.72
2022-08-28T03:34:55.977Z,94851.72
2022-08-28T03:37:22.636Z,94854.94
2022-08-28T03:39:49.365Z,94858.41
2022-08-28T03:42:15.982Z,94858.41
2022-08-28T03:44:42.640Z,94859.63
2022-08-28T03:47:09.226Z,94864.16
2022-08-28T03:49:36.896Z,94846.13
2022-08-28T03:52:03.759Z,94868.63
2022-08-28T03:54:31.550Z,94858.13
2022-08-28T03:56:58.449Z,94874.94
2022-08-28T03:59:26.210Z,94883.97
2022-08-28T04:01:58.305Z,94883.03
2022-08-28T04:04:24.936Z,94883.03
2022-08-28T04:06:51.517Z,94879.56
2022-08-28T04:09:18.181Z,94886.31
2022-08-28T04:11:44.757Z,94886.38
2022-08-28T04:14:12.376Z,94888.38
2022-08-28T04:16:39.099Z,94899.94
2022-08-28T04:19:05.938Z,94889.91
2022-08-28T04:21:32.622Z,94899.94
2022-08-28T04:23:59.255Z,94901.69
2022-08-28T04:26:27.409Z,94902.69
2022-08-28T04:28:56.193Z,94907.19
2022-08-28T04:31:31.094Z,94906.69
2022-08-28T04:34:00.895Z,94899.94
2022-08-28T04:36:27.541Z,94908.13
2022-08-28T04:38:55.121Z,94912.88
2022-08-28T04:41:21.972Z,94914.09
2022-08-28T04:43:48.689Z,94924.38
2022-08-28T04:46:15.619Z,94891.34
2022-08-28T04:48:43.146Z,94919.50
2022-08-28T04:51:11.515Z,94929.19
2022-08-28T04:53:39.089Z,94920.88
2022-08-28T04:56:08.013Z,94924.28
2022-08-28T04:58:35.137Z,94928.84
2022-08-28T05:01:18.922Z,94918.59
2022-08-28T05:03:47.989Z,94932.88
2022-08-28T05:06:16.368Z,94936.75
2022-08-28T05:08:43.227Z,94930.78
2022-08-28T05:11:34.305Z,94936.25
2022-08-28T05:14:05.558Z,94940.00
2022-08-28T05:16:34.461Z,94941.69
2022-08-28T05:19:02.243Z,94933.66
2022-08-28T05:21:29.040Z,94937.72
2022-08-28T05:23:57.493Z,94947.75
2022-08-28T05:26:26.742Z,94939.25
2022-08-28T05:28:56.491Z,94948.69
2022-08-28T05:31:24.488Z,94946.88
2022-08-28T05:33:52.707Z,94930.84
2022-08-28T05:36:22.711Z,94947.59
2022-08-28T05:38:50.770Z,94943.94
2022-08-28T05:41:25.049Z,94951.72
2022-08-28T05:43:53.609Z,94954.72
2022-08-28T05:46:21.045Z,94952.84
2022-08-28T05:48:49.372Z,94961.22
2022-08-28T05:51:19.469Z,94954.22
2022-08-28T05:53:47.944Z,94958.94
2022-08-28T05:56:20.601Z,94957.91
2022-08-28T05:58:47.388Z,94960.06
2022-08-28T06:01:19.816Z,94948.66
2022-08-28T06:03:55.895Z,94949.78
2022-08-28T06:06:24.727Z,94955.19
2022-08-28T06:08:58.952Z,94950.84
2022-08-28T06:11:30.999Z,94958.81
2022-08-28T06:14:02.803Z,94946.81
2022-08-28T06:16:31.787Z,94956.34
2022-08-28T06:18:59.057Z,94955.63
2022-08-28T06:21:26.144Z,94960.59
2022-08-28T06:23:52.853Z,94959.78
2022-08-28T06:26:19.506Z,94951.50
2022-08-28T06:28:46.261Z,94952.78
2022-08-28T06:31:25.078Z,94959.13
2022-08-28T06:33:56.187Z,94961.38
2022-08-28T06:36:23.863Z,94961.38
2022-08-28T06:38:50.640Z,94958.06
2022-08-28T06:41:17.270Z,94954.44
2022-08-28T06:43:43.891Z,94954.25
2022-08-28T06:46:10.757Z,94961.16
2022-08-28T06:48:37.455Z,94964.16
2022-08-28T06:51:08.161Z,94960.44
2022-08-28T06:53:35.074Z,94963.44
2022-08-28T06:56:11.319Z,94955.06
2022-08-28T06:58:42.618Z,94955.59
2022-08-28T07:01:22.861Z,94963.44
2022-08-28T07:03:52.207Z,94965.09
2022-08-28T07:06:21.138Z,94962.31
2022-08-28T07:08:48.064Z,94959.31
2022-08-28T07:11:22.192Z,94966.91
2022-08-28T07:13:53.835Z,94960.03
2022-08-28T07:16:23.410Z,94964.50
2022-08-28T07:18:50.282Z,94963.59
2022-08-28T07:21:17.246Z,94962.69
2022-08-28T07:23:45.298Z,94960.75
2022-08-28T07:26:15.968Z,94962.44
2022-08-28T07:28:43.042Z,94950.66
2022-08-28T07:31:18.604Z,94949.78
2022-08-28T07:33:46.187Z,94945.16
2022-08-28T07:36:28.702Z,94946.09
2022-08-28T07:38:57.965Z,94950.50
2022-08-28T07:41:28.516Z,94951.84
2022-08-28T07:44:13.912Z,94948.28
2022-08-28T07:46:41.236Z,94942.38
2022-08-28T07:49:08.821Z,94943.81
2022-08-28T07:51:35.926Z,94938.81
2022-08-28T07:54:04.070Z,94941.84
2022-08-28T07:56:31.956Z,94941.78
2022-08-28T07:59:00.080Z,94944.75
2022-08-28T08:01:30.830Z,94935.66
2022-08-28T08:04:01.181Z,94943.72
2022-08-28T08:06:33.811Z,94940.72
2022-08-28T08:09:01.992Z,94947.59
2022-08-28T08:11:32.193Z,94923.75
2022-08-28T08:14:05.446Z,94940.81
2022-08-28T08:16:35.956Z,94941.88
2022-08-28T08:19:03.994Z,94940.22
2022-08-28T08:21:31.696Z,94940.84
2022-08-28T08:23:58.852Z,94946.50
2022-08-28T08:26:28.262Z,94947.34
2022-08-28T08:28:56.010Z,94929.66
2022-08-28T08:31:32.296Z,94939.69
2022-08-28T08:34:02.057Z,94926.53
2022-08-28T08:36:30.077Z,94921.84
2022-08-28T08:38:59.656Z,94925.63
2022-08-28T08:41:39.160Z,94921.97
2022-08-28T08:44:46.936Z,94925.38
2022-08-28T08:47:27.241Z,94927.97
2022-08-28T08:50:00.391Z,94924.53
2022-08-28T08:52:35.750Z,94923.66
2022-08-28T08:55:08.429Z,94923.69
2022-08-28T08:57:38.192Z,94928.25
2022-08-28T09:00:12.279Z,94919.44
2022-08-28T09:02:50.347Z,94923.66
2022-08-28T09:05:22.118Z,94924.66
2022-08-28T09:08:01.673Z,94918.72
2022-08-28T09:10:53.897Z,94923.25
2022-08-28T09:13:27.926Z,94923.34
2022-08-28T09:15:54.777Z,94918.78
2022-08-28T09:18:27.141Z,94918.41
2022-08-28T09:20:58.170Z,94923.09
2022-08-28T09:23:27.321Z,94909.59
2022-08-28T09:26:09.326Z,94915.38
2022-08-28T09:28:40.895Z,94909.97
2022-08-28T09:31:31.741Z,94905.38
2022-08-28T09:34:24.401Z,94909.09
2022-08-28T09:36:53.060Z,94908.66
2022-08-28T09:39:32.135Z,94912.97
2022-08-28T09:42:33.341Z,94910.84
2022-08-28T09:45:16.265Z,94911.47
2022-08-28T09:47:50.808Z,94904.31
2022-08-28T09:50:43.525Z,94903.97
2022-08-28T09:53:10.085Z,94898.06
2022-08-28T09:55:50.227Z,94889.56
2022-08-28T09:58:18.317Z,94884.50
2022-08-28T10:01:06.143Z,94895.19
2022-08-28T10:03:45.003Z,94865.91
2022-08-28T10:06:18.637Z,94879.84
2022-08-28T10:08:57.507Z,94885.88
2022-08-28T10:11:28.918Z,94873.78
2022-08-28T10:14:14.375Z,94879.97
2022-08-28T10:16:59.701Z,94876.72
2022-08-28T10:20:00.768Z,94869.00
2022-08-28T10:22:36.128Z,94866.50
2022-08-28T10:25:15.531Z,94875.81
2022-08-28T10:27:42.204Z,94881.00
2022-08-28T10:30:13.601Z,94873.16
2022-08-28T10:32:43.115Z,94874.63
2022-08-28T10:35:17.722Z,94868.56
2022-08-28T10:37:47.595Z,94872.88
2022-08-28T10:40:24.455Z,94869.94
2022-08-28T10:43:14.927Z,94857.44
2022-08-28T10:45:42.105Z,94863.75
2022-08-28T10:48:47.608Z,94864.44
2022-08-28T10:51:38.496Z,94859.13
2022-08-28T10:54:39.605Z,94858.00
2022-08-28T10:57:55.674Z,94857.47
2022-08-28T11:00:25.575Z,94858.75
2022-08-28T11:02:59.893Z,94843.69
2022-08-28T11:05:32.664Z,94849.00
2022-08-28T11:08:05.254Z,94849.75
2022-08-28T11:10:34.978Z,94847.34
2022-08-28T11:13:04.123Z,94847.38
2022-08-28T11:15:36.675Z,94842.75
2022-08-28T11:18:15.926Z,94842.56
2022-08-28T11:20:58.299Z,94840.84
2022-08-28T11:23:41.983Z,94840.84
2022-08-28T11:26:12.802Z,94846.72
2022-08-28T11:28:47.614Z,94836.22
2022-08-28T11:31:16.354Z,94837.38
2022-08-28T11:33:56.367Z,94817.97
2022-08-28T11:36:22.916Z,94833.38
2022-08-28T11:38:52.255Z,94832.16
2022-08-28T11:41:22.715Z,94827.03
2022-08-28T11:44:13.425Z,94822.50
2022-08-28T11:46:41.129Z,94822.84
2022-08-28T11:49:29.223Z,94825.06
2022-08-28T11:52:23.839Z,94819.13
2022-08-28T11:55:21.911Z,94822.88
2022-08-28T11:58:19.893Z,94823.94
2022-08-28T12:00:46.472Z,94820.50
2022-08-28T12:03:42.009Z,94816.94
2022-08-28T12:06:09.772Z,94804.91
2022-08-28T12:08:46.638Z,94811.94
2022-08-28T12:11:41.997Z,94800.88
2022-08-28T12:14:31.831Z,94800.88
2022-08-28T12:16:58.391Z,94808.59
2022-08-28T12:19:55.791Z,94801.06
2022-08-28T12:22:26.443Z,94795.72
2022-08-28T12:25:06.120Z,94789.91
2022-08-28T12:27:38.422Z,94797.72
2022-08-28T12:30:05.938Z,94781.19
2022-08-28T12:32:49.836Z,94791.97
2022-08-28T12:35:43.949Z,94785.13
2022-08-28T12:38:20.903Z,94779.66
2022-08-28T12:40:50.784Z,94783.19
2022-08-28T12:43:29.620Z,94780.00
2022-08-28T12:46:19.971Z,94776.09
2022-08-28T12:48:59.607Z,94786.16
2022-08-28T12:51:32.123Z,94785.78
2022-08-28T12:54:04.780Z,94778.00
2022-08-28T12:56:38.949Z,94777.97
2022-08-28T12:59:27.064Z,94780.28
2022-08-28T13:01:54.942Z,94779.06
2022-08-28T13:04:53.548Z,94778.66
2022-08-28T13:07:35.105Z,94785.38
2022-08-28T13:10:14.693Z,94787.06
2022-08-28T13:12:55.013Z,94783.84
2022-08-28T13:15:46.003Z,94785.91
2022-08-28T13:18:55.344Z,94778.94
2022-08-28T13:21:33.742Z,94764.44
2022-08-28T13:24:21.639Z,94776.22
2022-08-28T13:27:09.095Z,94782.00
2022-08-28T13:29:37.089Z,94774.47
2022-08-28T13:32:16.226Z,94782.34
2022-08-28T13:35:16.599Z,94779.88
2022-08-28T13:37:45.340Z,94787.63
2022-08-28T13:40:38.162Z,94772.97
2022-08-28T13:43:07.026Z,94768.75
2022-08-28T13:45:43.216Z,94765.84
2022-08-28T13:48:13.361Z,94773.75
2022-08-28T13:50:44.756Z,94769.34
2022-08-28T13:53:15.185Z,94763.19
2022-08-28T13:55:41.784Z,94768.88
2022-08-28T13:58:08.412Z,94765.09
2022-08-28T14:00:39.721Z,94752.78
2022-08-28T14:03:24.838Z,94756.78
2022-08-28T14:05:51.546Z,94743.25
2022-08-28T14:08:18.491Z,94748.16
2022-08-28T14:10:45.232Z,94743.97
2022-08-28T14:13:12.412Z,94734.88
2022-08-28T14:15:39.271Z,94755.69
2022-08-28T14:18:06.108Z,94751.41
2022-08-28T14:20:32.876Z,94754.88
2022-08-28T14:22:59.548Z,94747.41
2022-08-28T14:25:26.204Z,94754.88
2022-08-28T14:27:53.154Z,94736.72
2022-08-28T14:30:19.924Z,94749.44
2022-08-28T14:32:46.713Z,94744.94
2022-08-28T14:35:13.416Z,94744.91
2022-08-28T14:37:40.157Z,94752.38
2022-08-28T14:40:07.905Z,94738.63
2022-08-28T14:42:35.962Z,94746.50
2022-08-28T14:45:04.245Z,94732.28
2022-08-28T14:47:30.853Z,94742.81
2022-08-28T14:49:57.515Z,94737.72
2022-08-28T14:52:24.147Z,94733.63
2022-08-28T14:54:51.131Z,94737.91
2022-08-28T14:57:18.451Z,94730.53
2022-08-28T14:59:45.304Z,94727.38
2022-08-28T15:02:13.612Z,94725.63
2022-08-28T15:04:40.210Z,94728.47
2022-08-28T15:07:10.826Z,94722.81
2022-08-28T15:09:40.475Z,94719.88
2022-08-28T15:12:07.539Z,94737.09
2022-08-28T15:14:36.688Z,94722.72
2022-08-28T15:17:03.742Z,94739.59
2022-08-28T15:19:30.455Z,94733.84
2022-08-28T15:21:57.574Z,94735.75
2022-08-28T15:24:28.612Z,94740.56
2022-08-28T15:26:55.248Z,94734.44
2022-08-28T15:29:22.002Z,94740.66
2022-08-28T15:31:50.268Z,94747.38
2022-08-28T15:34:22.953Z,94741.84
2022-08-28T15:36:55.846Z,94747.47
2022-08-28T15:39:42.867Z,94748.22
2022-08-28T15:42:10.364Z,94743.66
2022-08-28T15:44:37.471Z,94751.66
2022-08-28T15:47:05.029Z,94749.31
2022-08-28T15:49:38.889Z,94754.19
2022-08-28T15:52:12.495Z,94755.53
2022-08-28T15:54:39.559Z,94760.19
2022-08-28T15:57:06.671Z,94756.81
2022-08-28T15:59:48.315Z,94763.44
2022-08-28T16:02:21.375Z,94764.00
2022-08-28T16:04:48.622Z,94771.81
2022-08-28T16:07:16.059Z,94761.47
2022-08-28T16:09:42.748Z,94765.72
2022-08-28T16:12:09.395Z,94765.50
2022-08-28T16:14:36.264Z,94768.59
2022-08-28T16:17:05.674Z,94764.47
2022-08-28T16:19:38.458Z,94748.69
2022-08-28T16:22:05.492Z,94778.47
2022-08-28T16:24:32.140Z,94752.28
2022-08-28T16:26:58.776Z,94780.22
2022-08-28T16:29:26.385Z,94766.44
2022-08-28T16:31:53.259Z,94771.72
2022-08-28T16:34:20.279Z,94769.91
2022-08-28T16:36:48.258Z,94779.41
2022-08-28T16:39:15.325Z,94773.38
2022-08-28T16:41:42.181Z,94773.38
2022-08-28T16:44:09.152Z,94766.56
2022-08-28T16:46:37.379Z,94769.28
2022-08-28T16:49:04.244Z,94764.78
2022-08-28T16:51:30.880Z,94774.38
2022-08-28T16:53:57.912Z,94774.84
2022-08-28T16:56:25.037Z,94769.31
2022-08-28T16:58:52.982Z,94775.56
2022-08-28T17:01:22.219Z,94780.00
2022-08-28T17:03:52.006Z,94784.28
2022-08-28T17:06:23.385Z,94780.63
2022-08-28T17:08:55.883Z,94787.88
2022-08-28T17:11:24.531Z,94789.44
2022-08-28T17:13:51.341Z,94793.22
2022-08-28T17:16:19.608Z,94789.31
2022-08-28T17:18:47.458Z,94783.69
2022-08-28T17:21:37.720Z,94796.13
2022-08-28T17:24:05.646Z,94809.94
2022-08-28T17:26:32.407Z,94800.50
2022-08-28T17:28:59.044Z,94796.94
2022-08-28T17:31:25.709Z,94818.28
2022-08-28T17:33:52.402Z,94807.66
2022-08-28T17:36:30.710Z,94831.41
2022-08-28T17:39:01.584Z,94833.66
2022-08-28T17:41:28.247Z,94819.09
2022-08-28T17:43:55.325Z,94808.00
2022-08-28T17:46:22.172Z,94814.00
2022-08-28T17:48:55.794Z,94828.53
2022-08-28T17:51:40.418Z,94833.75
2022-08-28T17:54:13.055Z,94828.75
2022-08-28T17:56:40.228Z,94834.53
2022-08-28T17:59:07.206Z,94843.69
2022-08-28T18:01:34.218Z,94840.22
2022-08-28T18:04:00.934Z,94843.38
2022-08-28T18:06:27.697Z,94844.53
2022-08-28T18:08:54.612Z,94844.38
2022-08-28T18:11:21.311Z,94844.75
2022-08-28T18:13:47.953Z,94853.66
2022-08-28T18:16:14.845Z,94850.50
2022-08-28T18:18:42.080Z,94857.78
2022-08-28T18:21:13.954Z,94854.25
2022-08-28T18:23:40.826Z,94853.50
2022-08-28T18:26:09.166Z,94848.31
2022-08-28T18:28:37.217Z,94868.19
2022-08-28T18:31:06.492Z,94860.22
2022-08-28T18:33:34.183Z,94861.28
2022-08-28T18:36:01.435Z,94862.44
2022-08-28T18:38:28.830Z,94861.50
2022-08-28T18:40:57.338Z,94866.53
2022-08-28T18:43:27.447Z,94868.91
2022-08-28T18:45:54.295Z,94878.78
2022-08-28T18:48:21.679Z,94877.13
2022-08-28T18:50:48.925Z,94871.19
2022-08-28T18:53:17.146Z,94877.13
2022-08-28T18:55:45.964Z,94875.84
2022-08-28T18:58:15.013Z,94887.00
2022-08-28T19:00:42.319Z,94890.53
2022-08-28T19:03:09.348Z,94895.00
2022-08-28T19:05:37.139Z,94902.75
2022-08-28T19:08:04.539Z,94907.22
2022-08-28T19:10:34.655Z,94902.91
2022-08-28T19:13:02.461Z,94918.53
2022-08-28T19:15:30.230Z,94917.59
2022-08-28T19:17:57.673Z,94920.16
2022-08-28T19:20:24.402Z,94922.41
2022-08-28T19:22:51.566Z,94908.84
2022-08-28T19:25:22.427Z,94916.09
2022-08-28T19:27:58.629Z,94918.06
2022-08-28T19:30:27.485Z,94920.00
2022-08-28T19:32:54.287Z,94924.03
2022-08-28T19:35:24.263Z,94930.97
2022-08-28T19:37:54.315Z,94934.47
2022-08-28T19:40:22.183Z,94932.78
2022-08-28T19:42:50.074Z,94928.56
2022-08-28T19:45:17.877Z,94926.91
2022-08-28T19:47:45.068Z,94927.66
2022-08-28T19:50:13.025Z,94938.88
2022-08-28T19:52:40.349Z,94938.03
2022-08-28T19:55:08.433Z,94943.75
2022-08-28T19:57:35.811Z,94933.78
2022-08-28T20:00:04.689Z,94933.25
2022-08-28T20:02:31.504Z,94939.34
2022-08-28T20:04:58.117Z,94944.34
2022-08-28T20:07:25.029Z,94942.78
2022-08-28T20:09:52.207Z,94943.31
2022-08-28T20:12:19.768Z,94952.94
2022-08-28T20:14:47.182Z,94955.38
2022-08-28T20:17:14.135Z,94952.94
2022-08-28T20:19:41.327Z,94946.84
2022-08-28T20:22:08.206Z,94944.28
2022-08-28T20:24:35.238Z,94957.63
2022-08-28T20:27:02.273Z,94949.97
2022-08-28T20:29:29.281Z,94965.28
2022-08-28T20:31:55.904Z,94960.38
2022-08-28T20:34:23.174Z,94963.56
2022-08-28T20:36:49.776Z,94959.38
2022-08-28T20:39:20.674Z,94958.00
2022-08-28T20:41:48.194Z,94957.16
2022-08-28T20:44:18.792Z,94958.09
2022-08-28T20:46:51.220Z,94955.31
2022-08-28T20:49:22.113Z,94954.88
2022-08-28T20:51:58.862Z,94952.78
2022-08-28T20:54:34.414Z,94965.00
2022-08-28T20:57:03.652Z,94960.44
2022-08-28T20:59:39.334Z,94953.41
2022-08-28T21:02:13.964Z,94951.16
2022-08-28T21:04:42.368Z,94945.25
2022-08-28T21:07:10.514Z,94958.22
2022-08-28T21:10:05.506Z,94953.53
2022-08-28T21:12:24.728Z,94947.91
2022-08-28T21:14:52.866Z,94956.56
2022-08-28T21:17:28.822Z,94957.97
2022-08-28T21:19:59.258Z,94954.19
2022-08-28T21:22:25.877Z,94952.50
2022-08-28T21:24:52.535Z,94959.13
2022-08-28T21:27:19.151Z,94954.03
2022-08-28T21:29:46.143Z,94956.81
2022-08-28T21:32:13.448Z,94957.47
2022-08-28T21:34:40.077Z,94947.34
2022-08-28T21:37:07.308Z,94943.91
2022-08-28T21:39:34.803Z,94936.81
2022-08-28T21:42:01.366Z,94954.22
2022-08-28T21:44:28.169Z,94952.75
2022-08-28T21:46:55.047Z,94956.38
2022-08-28T21:49:22.761Z,94961.06
2022-08-28T21:51:50.610Z,94963.75
2022-08-28T21:54:18.656Z,94962.59
2022-08-28T21:56:46.299Z,94965.31
2022-08-28T21:59:15.544Z,94976.81
2022-08-28T22:01:42.351Z,94963.47
2022-08-28T22:04:09.953Z,94972.53
2022-08-28T22:06:36.664Z,94964.63
2022-08-28T22:09:05.425Z,94967.81
2022-08-28T22:11:33.548Z,94969.34
2022-08-28T22:14:00.876Z,94977.88
2022-08-28T22:16:28.259Z,94946.59
2022-08-28T22:18:54.982Z,94975.97
2022-08-28T22:21:44.211Z,94981.41
2022-08-28T22:24:12.585Z,94973.94
2022-08-28T22:26:40.872Z,94975.44
2022-08-28T22:29:08.033Z,94976.72
2022-08-28T22:31:35.172Z,94977.66
2022-08-28T22:34:06.027Z,94983.44
2022-08-28T22:36:33.084Z,94975.72
2022-08-28T22:39:00.015Z,94971.19
2022-08-28T22:41:26.888Z,94982.34
2022-08-28T22:43:53.900Z,94982.88
2022-08-28T22:46:20.800Z,94984.81
2022-08-28T22:48:47.756Z,94974.47
2022-08-28T22:51:18.538Z,94978.84
2022-08-28T22:53:45.772Z,94980.97
2022-08-28T22:56:13.501Z,94987.06
2022-08-28T22:58:40.507Z,94975.84
2022-08-28T23:01:11.968Z,94983.84
2022-08-28T23:03:39.674Z,94982.34
2022-08-28T23:06:06.563Z,94981.38
2022-08-28T23:08:34.213Z,94975.94
2022-08-28T23:11:01.348Z,94978.28
2022-08-28T23:13:28.640Z,94983.81
2022-08-28T23:15:55.320Z,94979.44
2022-08-28T23:18:22.343Z,94985.06
2022-08-28T23:20:50.731Z,94976.50
2022-08-28T23:23:19.047Z,94979.28
2022-08-28T23:25:45.974Z,94977.88
2022-08-28T23:28:13.271Z,94978.19
2022-08-28T23:30:44.023Z,94983.25
2022-08-28T23:33:23.512Z,94984.00
2022-08-28T23:35:51.988Z,94979.56
2022-08-28T23:38:19.232Z,94985.13
2022-08-28T23:40:48.117Z,94980.81
2022-08-28T23:43:15.483Z,94982.91
2022-08-28T23:45:43.618Z,94976.34
2022-08-28T23:48:11.158Z,94992.94
2022-08-28T23:50:41.275Z,94990.44
2022-08-28T23:53:09.113Z,94986.41
2022-08-28T23:55:36.778Z,94979.59
2022-08-28T23:58:04.111Z,94969.06
